sensor_id;sensor_type;location;lat;lon;timestamp;P1;durP1;ratioP1;P2;durP2;ratioP2
17937;SDS011;16051;53.024;8.630;2023-01-28T00:03:21;5.30;;;3.60;;
17937;SDS011;16051;53.024;8.630;2023-01-28T00:07:26;5.40;;;3.53;;
17937;SDS011;16051;53.024;8.630;2023-01-28T00:11:29;4.00;;;3.67;;
17937;SDS011;16051;53.024;8.630;2023-01-28T00:15:31;4.10;;;3.47;;
17937;SDS011;16051;53.024;8.630;2023-01-28T00:19:35;4.97;;;3.87;;
17937;SDS011;16051;53.024;8.630;2023-01-28T00:23:37;5.33;;;3.60;;
17937;SDS011;16051;53.024;8.630;2023-01-28T00:27:42;5.97;;;3.80;;
17937;SDS011;16051;53.024;8.630;2023-01-28T00:31:44;3.73;;;2.90;;
17937;SDS011;16051;53.024;8.630;2023-01-28T00:35:52;3.23;;;2.70;;
17937;SDS011;16051;53.024;8.630;2023-01-28T00:44:42;3.27;;;2.97;;
17937;SDS011;16051;53.024;8.630;2023-01-28T00:48:44;4.07;;;2.93;;
17937;SDS011;16051;53.024;8.630;2023-01-28T00:52:48;3.00;;;2.70;;
17937;SDS011;16051;53.024;8.630;2023-01-28T00:56:50;4.47;;;3.37;;
17937;SDS011;16051;53.024;8.630;2023-01-28T01:00:52;4.27;;;3.97;;
17937;SDS011;16051;53.024;8.630;2023-01-28T01:04:54;5.60;;;3.47;;
17937;SDS011;16051;53.024;8.630;2023-01-28T01:09:01;5.03;;;3.27;;
17937;SDS011;16051;53.024;8.630;2023-01-28T01:13:08;5.00;;;3.10;;
17937;SDS011;16051;53.024;8.630;2023-01-28T01:17:10;3.47;;;3.17;;
17937;SDS011;16051;53.024;8.630;2023-01-28T01:21:13;3.43;;;3.13;;
17937;SDS011;16051;53.024;8.630;2023-01-28T01:25:19;5.20;;;3.10;;
17937;SDS011;16051;53.024;8.630;2023-01-28T01:29:21;3.87;;;2.87;;
17937;SDS011;16051;53.024;8.630;2023-01-28T01:33:23;4.53;;;3.57;;
17937;SDS011;16051;53.024;8.630;2023-01-28T01:37:25;3.60;;;3.17;;
17937;SDS011;16051;53.024;8.630;2023-01-28T01:41:30;5.40;;;3.60;;
17937;SDS011;16051;53.024;8.630;2023-01-28T01:45:33;7.00;;;3.53;;
17937;SDS011;16051;53.024;8.630;2023-01-28T01:49:35;5.73;;;3.50;;
17937;SDS011;16051;53.024;8.630;2023-01-28T01:53:38;3.30;;;3.00;;
17937;SDS011;16051;53.024;8.630;2023-01-28T01:57:46;5.97;;;3.50;;
17937;SDS011;16051;53.024;8.630;2023-01-28T02:01:53;4.07;;;3.53;;
17937;SDS011;16051;53.024;8.630;2023-01-28T02:05:56;4.53;;;3.80;;
17937;SDS011;16051;53.024;8.630;2023-01-28T02:09:58;5.93;;;3.70;;
17937;SDS011;16051;53.024;8.630;2023-01-28T02:14:02;4.10;;;3.70;;
17937;SDS011;16051;53.024;8.630;2023-01-28T02:18:06;3.80;;;3.50;;
17937;SDS011;16051;53.024;8.630;2023-01-28T02:22:21;3.53;;;3.27;;
17937;SDS011;16051;53.024;8.630;2023-01-28T02:27:23;3.90;;;3.50;;
17937;SDS011;16051;53.024;8.630;2023-01-28T02:31:37;4.63;;;4.10;;
17937;SDS011;16051;53.024;8.630;2023-01-28T02:35:51;5.60;;;4.20;;
17937;SDS011;16051;53.024;8.630;2023-01-28T02:44:11;5.23;;;4.73;;
17937;SDS011;16051;53.024;8.630;2023-01-28T02:52:55;5.73;;;5.13;;
17937;SDS011;16051;53.024;8.630;2023-01-28T02:57:33;5.67;;;5.07;;
17937;SDS011;16051;53.024;8.630;2023-01-28T03:01:45;6.83;;;5.27;;
17937;SDS011;16051;53.024;8.630;2023-01-28T03:05:59;8.43;;;5.87;;
17937;SDS011;16051;53.024;8.630;2023-01-28T03:10:08;6.90;;;6.20;;
17937;SDS011;16051;53.024;8.630;2023-01-28T03:14:15;4.63;;;4.23;;
17937;SDS011;16051;53.024;8.630;2023-01-28T03:18:38;4.37;;;3.63;;
17937;SDS011;16051;53.024;8.630;2023-01-28T03:23:05;4.73;;;4.23;;
17937;SDS011;16051;53.024;8.630;2023-01-28T03:27:31;8.17;;;6.70;;
17937;SDS011;16051;53.024;8.630;2023-01-28T03:32:02;10.43;;;8.33;;
17937;SDS011;16051;53.024;8.630;2023-01-28T03:36:22;12.10;;;8.80;;
17937;SDS011;16051;53.024;8.630;2023-01-28T03:44:55;11.70;;;9.07;;
17937;SDS011;16051;53.024;8.630;2023-01-28T03:48:58;10.17;;;9.07;;
17937;SDS011;16051;53.024;8.630;2023-01-28T03:53:00;12.30;;;9.40;;
17937;SDS011;16051;53.024;8.630;2023-01-28T03:57:12;11.67;;;9.90;;
17937;SDS011;16051;53.024;8.630;2023-01-28T04:01:15;11.43;;;8.77;;
17937;SDS011;16051;53.024;8.630;2023-01-28T04:05:17;13.17;;;9.57;;
17937;SDS011;16051;53.024;8.630;2023-01-28T04:09:19;11.37;;;9.37;;
17937;SDS011;16051;53.024;8.630;2023-01-28T04:13:29;11.23;;;8.57;;
17937;SDS011;16051;53.024;8.630;2023-01-28T04:17:31;10.43;;;8.50;;
17937;SDS011;16051;53.024;8.630;2023-01-28T04:21:34;13.70;;;9.50;;
17937;SDS011;16051;53.024;8.630;2023-01-28T04:25:37;14.57;;;10.07;;
17937;SDS011;16051;53.024;8.630;2023-01-28T04:29:40;11.57;;;9.30;;
17937;SDS011;16051;53.024;8.630;2023-01-28T04:33:42;12.23;;;9.47;;
17937;SDS011;16051;53.024;8.630;2023-01-28T04:37:44;12.37;;;9.00;;
17937;SDS011;16051;53.024;8.630;2023-01-28T04:41:53;12.63;;;10.27;;
17937;SDS011;16051;53.024;8.630;2023-01-28T04:45:57;11.03;;;9.37;;
17937;SDS011;16051;53.024;8.630;2023-01-28T04:49:59;13.03;;;10.30;;
17937;SDS011;16051;53.024;8.630;2023-01-28T04:54:01;11.60;;;9.83;;
17937;SDS011;16051;53.024;8.630;2023-01-28T04:58:03;12.47;;;10.20;;
17937;SDS011;16051;53.024;8.630;2023-01-28T05:02:07;14.57;;;10.33;;
17937;SDS011;16051;53.024;8.630;2023-01-28T05:06:09;13.17;;;10.63;;
17937;SDS011;16051;53.024;8.630;2023-01-28T05:10:21;14.70;;;10.10;;
17937;SDS011;16051;53.024;8.630;2023-01-28T05:14:25;12.73;;;10.30;;
17937;SDS011;16051;53.024;8.630;2023-01-28T05:18:31;12.53;;;10.60;;
17937;SDS011;16051;53.024;8.630;2023-01-28T05:22:34;13.67;;;10.97;;
17937;SDS011;16051;53.024;8.630;2023-01-28T05:26:36;12.63;;;10.23;;
17937;SDS011;16051;53.024;8.630;2023-01-28T05:30:38;12.93;;;9.50;;
17937;SDS011;16051;53.024;8.630;2023-01-28T05:34:42;13.37;;;10.77;;
17937;SDS011;16051;53.024;8.630;2023-01-28T05:38:44;12.23;;;10.40;;
17937;SDS011;16051;53.024;8.630;2023-01-28T05:42:46;12.43;;;10.00;;
17937;SDS011;16051;53.024;8.630;2023-01-28T05:46:48;12.03;;;10.07;;
17937;SDS011;16051;53.024;8.630;2023-01-28T05:55:46;14.33;;;10.47;;
17937;SDS011;16051;53.024;8.630;2023-01-28T05:59:49;11.47;;;9.57;;
17937;SDS011;16051;53.024;8.630;2023-01-28T06:03:51;12.10;;;9.47;;
17937;SDS011;16051;53.024;8.630;2023-01-28T06:07:54;13.23;;;10.23;;
17937;SDS011;16051;53.024;8.630;2023-01-28T06:11:56;14.37;;;10.57;;
17937;SDS011;16051;53.024;8.630;2023-01-28T06:15:59;12.30;;;9.60;;
17937;SDS011;16051;53.024;8.630;2023-01-28T06:20:01;12.43;;;10.00;;
17937;SDS011;16051;53.024;8.630;2023-01-28T06:24:05;14.43;;;11.03;;
17937;SDS011;16051;53.024;8.630;2023-01-28T06:28:08;16.03;;;11.03;;
17937;SDS011;16051;53.024;8.630;2023-01-28T06:36:46;15.50;;;11.13;;
17937;SDS011;16051;53.024;8.630;2023-01-28T06:40:51;15.33;;;11.17;;
17937;SDS011;16051;53.024;8.630;2023-01-28T06:44:55;16.93;;;11.73;;
17937;SDS011;16051;53.024;8.630;2023-01-28T06:48:57;15.13;;;11.23;;
17937;SDS011;16051;53.024;8.630;2023-01-28T06:52:59;17.20;;;10.83;;
17937;SDS011;16051;53.024;8.630;2023-01-28T06:57:02;15.03;;;11.47;;
17937;SDS011;16051;53.024;8.630;2023-01-28T07:01:05;14.87;;;11.60;;
17937;SDS011;16051;53.024;8.630;2023-01-28T07:05:07;16.33;;;12.50;;
17937;SDS011;16051;53.024;8.630;2023-01-28T07:09:10;16.57;;;11.80;;
17937;SDS011;16051;53.024;8.630;2023-01-28T07:13:13;15.40;;;11.57;;
17937;SDS011;16051;53.024;8.630;2023-01-28T07:17:16;15.27;;;11.03;;
17937;SDS011;16051;53.024;8.630;2023-01-28T07:21:18;17.07;;;11.40;;
17937;SDS011;16051;53.024;8.630;2023-01-28T07:25:20;17.93;;;11.70;;
17937;SDS011;16051;53.024;8.630;2023-01-28T07:29:23;15.97;;;12.23;;
17937;SDS011;16051;53.024;8.630;2023-01-28T07:33:25;16.00;;;12.13;;
17937;SDS011;16051;53.024;8.630;2023-01-28T07:37:28;17.50;;;11.50;;
17937;SDS011;16051;53.024;8.630;2023-01-28T07:41:30;19.00;;;12.83;;
17937;SDS011;16051;53.024;8.630;2023-01-28T07:45:33;16.43;;;12.43;;
17937;SDS011;16051;53.024;8.630;2023-01-28T07:49:36;18.77;;;12.10;;
17937;SDS011;16051;53.024;8.630;2023-01-28T07:53:39;17.90;;;12.80;;
17937;SDS011;16051;53.024;8.630;2023-01-28T07:57:48;20.57;;;15.00;;
17937;SDS011;16051;53.024;8.630;2023-01-28T08:01:53;20.00;;;14.43;;
17937;SDS011;16051;53.024;8.630;2023-01-28T08:05:56;21.97;;;15.80;;
17937;SDS011;16051;53.024;8.630;2023-01-28T08:09:58;27.40;;;17.63;;
17937;SDS011;16051;53.024;8.630;2023-01-28T08:14:00;23.80;;;18.37;;
17937;SDS011;16051;53.024;8.630;2023-01-28T08:22:30;20.20;;;14.00;;
17937;SDS011;16051;53.024;8.630;2023-01-28T08:26:32;20.27;;;14.33;;
17937;SDS011;16051;53.024;8.630;2023-01-28T08:30:34;20.17;;;14.33;;
17937;SDS011;16051;53.024;8.630;2023-01-28T08:39:03;20.00;;;14.80;;
17937;SDS011;16051;53.024;8.630;2023-01-28T08:43:05;20.87;;;14.23;;
17937;SDS011;16051;53.024;8.630;2023-01-28T08:47:08;19.60;;;13.43;;
17937;SDS011;16051;53.024;8.630;2023-01-28T08:51:17;16.43;;;12.53;;
17937;SDS011;16051;53.024;8.630;2023-01-28T08:55:19;22.47;;;15.43;;
17937;SDS011;16051;53.024;8.630;2023-01-28T08:59:22;22.23;;;14.10;;
17937;SDS011;16051;53.024;8.630;2023-01-28T09:03:24;23.27;;;15.90;;
17937;SDS011;16051;53.024;8.630;2023-01-28T09:07:32;20.80;;;14.43;;
17937;SDS011;16051;53.024;8.630;2023-01-28T09:11:35;24.03;;;16.13;;
17937;SDS011;16051;53.024;8.630;2023-01-28T09:15:37;23.87;;;16.63;;
17937;SDS011;16051;53.024;8.630;2023-01-28T09:19:40;22.17;;;15.10;;
17937;SDS011;16051;53.024;8.630;2023-01-28T09:23:43;23.30;;;15.67;;
17937;SDS011;16051;53.024;8.630;2023-01-28T09:27:49;23.00;;;16.17;;
17937;SDS011;16051;53.024;8.630;2023-01-28T09:31:53;18.97;;;14.03;;
17937;SDS011;16051;53.024;8.630;2023-01-28T09:36:04;19.63;;;13.67;;
17937;SDS011;16051;53.024;8.630;2023-01-28T09:40:12;19.87;;;13.33;;
17937;SDS011;16051;53.024;8.630;2023-01-28T09:44:23;19.10;;;12.53;;
17937;SDS011;16051;53.024;8.630;2023-01-28T09:48:47;17.17;;;12.13;;
17937;SDS011;16051;53.024;8.630;2023-01-28T09:57:34;15.30;;;10.93;;
17937;SDS011;16051;53.024;8.630;2023-01-28T10:01:43;16.20;;;11.53;;
17937;SDS011;16051;53.024;8.630;2023-01-28T10:05:58;16.77;;;12.27;;
17937;SDS011;16051;53.024;8.630;2023-01-28T10:10:25;16.33;;;11.43;;
17937;SDS011;16051;53.024;8.630;2023-01-28T10:14:41;16.20;;;11.00;;
17937;SDS011;16051;53.024;8.630;2023-01-28T10:19:06;15.60;;;11.73;;
17937;SDS011;16051;53.024;8.630;2023-01-28T10:23:18;17.73;;;12.27;;
17937;SDS011;16051;53.024;8.630;2023-01-28T10:27:27;17.03;;;12.07;;
17937;SDS011;16051;53.024;8.630;2023-01-28T10:31:34;14.80;;;11.13;;
17937;SDS011;16051;53.024;8.630;2023-01-28T10:35:43;17.00;;;11.60;;
17937;SDS011;16051;53.024;8.630;2023-01-28T10:39:50;17.40;;;11.17;;
17937;SDS011;16051;53.024;8.630;2023-01-28T10:43:55;15.77;;;10.43;;
17937;SDS011;16051;53.024;8.630;2023-01-28T10:48:08;15.40;;;11.03;;
17937;SDS011;16051;53.024;8.630;2023-01-28T10:52:22;16.63;;;11.67;;
17937;SDS011;16051;53.024;8.630;2023-01-28T10:56:27;16.07;;;11.57;;
17937;SDS011;16051;53.024;8.630;2023-01-28T11:00:32;14.77;;;11.03;;
17937;SDS011;16051;53.024;8.630;2023-01-28T11:04:41;13.63;;;10.03;;
17937;SDS011;16051;53.024;8.630;2023-01-28T11:09:02;16.10;;;10.93;;
17937;SDS011;16051;53.024;8.630;2023-01-28T11:13:20;15.20;;;11.00;;
17937;SDS011;16051;53.024;8.630;2023-01-28T11:17:27;17.33;;;12.03;;
17937;SDS011;16051;53.024;8.630;2023-01-28T11:21:33;16.93;;;10.97;;
17937;SDS011;16051;53.024;8.630;2023-01-28T11:25:37;14.80;;;10.33;;
17937;SDS011;16051;53.024;8.630;2023-01-28T11:29:39;13.23;;;9.90;;
17937;SDS011;16051;53.024;8.630;2023-01-28T11:33:42;12.57;;;9.63;;
17937;SDS011;16051;53.024;8.630;2023-01-28T11:37:50;14.57;;;10.37;;
17937;SDS011;16051;53.024;8.630;2023-01-28T11:41:53;16.17;;;9.87;;
17937;SDS011;16051;53.024;8.630;2023-01-28T11:45:58;13.13;;;9.30;;
17937;SDS011;16051;53.024;8.630;2023-01-28T11:50:21;12.50;;;8.33;;
17937;SDS011;16051;53.024;8.630;2023-01-28T11:54:40;11.57;;;8.83;;
17937;SDS011;16051;53.024;8.630;2023-01-28T11:58:59;12.53;;;9.13;;
17937;SDS011;16051;53.024;8.630;2023-01-28T12:03:25;13.70;;;9.63;;
17937;SDS011;16051;53.024;8.630;2023-01-28T12:07:44;16.07;;;9.57;;
17937;SDS011;16051;53.024;8.630;2023-01-28T12:12:02;12.17;;;8.33;;
17937;SDS011;16051;53.024;8.630;2023-01-28T12:16:34;12.83;;;8.53;;
17937;SDS011;16051;53.024;8.630;2023-01-28T12:20:56;13.80;;;8.23;;
17937;SDS011;16051;53.024;8.630;2023-01-28T12:25:17;12.00;;;9.07;;
17937;SDS011;16051;53.024;8.630;2023-01-28T12:29:33;13.20;;;9.07;;
17937;SDS011;16051;53.024;8.630;2023-01-28T12:33:53;13.63;;;9.30;;
17937;SDS011;16051;53.024;8.630;2023-01-28T12:38:37;13.83;;;9.23;;
17937;SDS011;16051;53.024;8.630;2023-01-28T12:42:49;13.63;;;9.37;;
17937;SDS011;16051;53.024;8.630;2023-01-28T12:46:59;14.73;;;10.50;;
17937;SDS011;16051;53.024;8.630;2023-01-28T12:51:10;13.27;;;9.60;;
17937;SDS011;16051;53.024;8.630;2023-01-28T12:59:55;13.80;;;9.83;;
17937;SDS011;16051;53.024;8.630;2023-01-28T13:04:33;15.43;;;11.27;;
17937;SDS011;16051;53.024;8.630;2023-01-28T13:08:42;15.37;;;10.70;;
17937;SDS011;16051;53.024;8.630;2023-01-28T13:12:44;14.33;;;10.20;;
17937;SDS011;16051;53.024;8.630;2023-01-28T13:16:48;14.03;;;10.20;;
17937;SDS011;16051;53.024;8.630;2023-01-28T13:21:05;13.63;;;10.50;;
17937;SDS011;16051;53.024;8.630;2023-01-28T13:25:23;12.67;;;9.33;;
17937;SDS011;16051;53.024;8.630;2023-01-28T13:29:28;15.70;;;9.73;;
17937;SDS011;16051;53.024;8.630;2023-01-28T13:33:34;12.77;;;9.17;;
17937;SDS011;16051;53.024;8.630;2023-01-28T13:37:43;12.27;;;8.70;;
17937;SDS011;16051;53.024;8.630;2023-01-28T13:41:48;11.57;;;8.63;;
17937;SDS011;16051;53.024;8.630;2023-01-28T13:45:56;12.33;;;8.83;;
17937;SDS011;16051;53.024;8.630;2023-01-28T13:50:00;13.27;;;9.83;;
17937;SDS011;16051;53.024;8.630;2023-01-28T14:03:37;12.77;;;8.97;;
17937;SDS011;16051;53.024;8.630;2023-01-28T14:13:02;10.53;;;8.80;;
17937;SDS011;16051;53.024;8.630;2023-01-28T14:17:41;12.13;;;8.83;;
17937;SDS011;16051;53.024;8.630;2023-01-28T14:21:48;11.27;;;9.50;;
17937;SDS011;16051;53.024;8.630;2023-01-28T14:25:55;11.60;;;8.57;;
17937;SDS011;16051;53.024;8.630;2023-01-28T14:30:14;9.80;;;7.87;;
17937;SDS011;16051;53.024;8.630;2023-01-28T14:34:25;11.43;;;9.00;;
17937;SDS011;16051;53.024;8.630;2023-01-28T14:38:32;10.67;;;7.70;;
17937;SDS011;16051;53.024;8.630;2023-01-28T14:47:34;11.13;;;8.17;;
17937;SDS011;16051;53.024;8.630;2023-01-28T14:52:20;10.33;;;7.90;;
17937;SDS011;16051;53.024;8.630;2023-01-28T14:56:48;10.67;;;7.50;;
17937;SDS011;16051;53.024;8.630;2023-01-28T15:01:19;11.10;;;7.67;;
17937;SDS011;16051;53.024;8.630;2023-01-28T15:05:26;11.00;;;8.23;;
17937;SDS011;16051;53.024;8.630;2023-01-28T15:09:31;11.63;;;7.60;;
17937;SDS011;16051;53.024;8.630;2023-01-28T15:13:35;11.37;;;8.40;;
17937;SDS011;16051;53.024;8.630;2023-01-28T15:17:41;12.20;;;8.40;;
17937;SDS011;16051;53.024;8.630;2023-01-28T15:21:45;10.40;;;8.00;;
17937;SDS011;16051;53.024;8.630;2023-01-28T15:25:48;14.77;;;9.63;;
17937;SDS011;16051;53.024;8.630;2023-01-28T15:29:54;11.87;;;8.60;;
17937;SDS011;16051;53.024;8.630;2023-01-28T15:34:00;10.60;;;7.80;;
17937;SDS011;16051;53.024;8.630;2023-01-28T15:38:07;10.90;;;8.33;;
17937;SDS011;16051;53.024;8.630;2023-01-28T15:42:15;18.27;;;10.33;;
17937;SDS011;16051;53.024;8.630;2023-01-28T15:46:22;11.43;;;8.30;;
17937;SDS011;16051;53.024;8.630;2023-01-28T15:50:24;12.03;;;8.33;;
17937;SDS011;16051;53.024;8.630;2023-01-28T15:54:36;13.20;;;9.20;;
17937;SDS011;16051;53.024;8.630;2023-01-28T15:58:40;14.90;;;9.17;;
17937;SDS011;16051;53.024;8.630;2023-01-28T16:06:51;15.37;;;8.97;;
17937;SDS011;16051;53.024;8.630;2023-01-28T16:15:02;13.93;;;11.13;;
17937;SDS011;16051;53.024;8.630;2023-01-28T16:19:06;15.03;;;11.10;;
17937;SDS011;16051;53.024;8.630;2023-01-28T16:23:12;15.67;;;11.40;;
17937;SDS011;16051;53.024;8.630;2023-01-28T16:27:25;13.47;;;10.53;;
17937;SDS011;16051;53.024;8.630;2023-01-28T16:31:30;11.80;;;8.83;;
17937;SDS011;16051;53.024;8.630;2023-01-28T16:35:32;13.67;;;9.43;;
17937;SDS011;16051;53.024;8.630;2023-01-28T16:39:34;13.10;;;9.33;;
17937;SDS011;16051;53.024;8.630;2023-01-28T16:43:43;14.47;;;9.43;;
17937;SDS011;16051;53.024;8.630;2023-01-28T16:47:45;20.27;;;16.93;;
17937;SDS011;16051;53.024;8.630;2023-01-28T16:51:47;15.07;;;12.33;;
17937;SDS011;16051;53.024;8.630;2023-01-28T16:55:49;20.23;;;13.57;;
17937;SDS011;16051;53.024;8.630;2023-01-28T17:04:17;29.63;;;18.77;;
17937;SDS011;16051;53.024;8.630;2023-01-28T17:08:19;13.93;;;11.50;;
17937;SDS011;16051;53.024;8.630;2023-01-28T17:12:21;11.93;;;9.43;;
17937;SDS011;16051;53.024;8.630;2023-01-28T17:16:26;11.47;;;8.13;;
17937;SDS011;16051;53.024;8.630;2023-01-28T17:20:29;12.63;;;9.77;;
17937;SDS011;16051;53.024;8.630;2023-01-28T17:24:37;11.17;;;9.10;;
17937;SDS011;16051;53.024;8.630;2023-01-28T17:28:50;12.00;;;9.30;;
17937;SDS011;16051;53.024;8.630;2023-01-28T17:32:54;10.73;;;8.70;;
17937;SDS011;16051;53.024;8.630;2023-01-28T17:36:56;11.77;;;9.87;;
17937;SDS011;16051;53.024;8.630;2023-01-28T17:40:59;12.53;;;9.60;;
17937;SDS011;16051;53.024;8.630;2023-01-28T17:45:02;12.87;;;9.80;;
17937;SDS011;16051;53.024;8.630;2023-01-28T17:49:15;14.33;;;10.43;;
17937;SDS011;16051;53.024;8.630;2023-01-28T17:53:27;12.93;;;9.50;;
17937;SDS011;16051;53.024;8.630;2023-01-28T17:57:29;16.20;;;11.67;;
17937;SDS011;16051;53.024;8.630;2023-01-28T18:01:32;13.23;;;10.03;;
17937;SDS011;16051;53.024;8.630;2023-01-28T18:05:37;16.83;;;12.17;;
17937;SDS011;16051;53.024;8.630;2023-01-28T18:09:40;14.17;;;9.50;;
17937;SDS011;16051;53.024;8.630;2023-01-28T18:13:45;12.97;;;9.73;;
17937;SDS011;16051;53.024;8.630;2023-01-28T18:17:47;13.07;;;9.77;;
17937;SDS011;16051;53.024;8.630;2023-01-28T18:21:56;13.30;;;9.40;;
17937;SDS011;16051;53.024;8.630;2023-01-28T18:25:59;13.07;;;9.30;;
17937;SDS011;16051;53.024;8.630;2023-01-28T18:30:06;14.53;;;9.87;;
17937;SDS011;16051;53.024;8.630;2023-01-28T18:34:10;20.40;;;12.40;;
17937;SDS011;16051;53.024;8.630;2023-01-28T18:38:13;13.20;;;9.77;;
17937;SDS011;16051;53.024;8.630;2023-01-28T18:42:17;11.67;;;8.93;;
17937;SDS011;16051;53.024;8.630;2023-01-28T18:46:19;15.13;;;9.30;;
17937;SDS011;16051;53.024;8.630;2023-01-28T18:50:22;10.67;;;8.53;;
17937;SDS011;16051;53.024;8.630;2023-01-28T18:54:26;13.63;;;10.70;;
17937;SDS011;16051;53.024;8.630;2023-01-28T18:58:28;14.13;;;9.30;;
17937;SDS011;16051;53.024;8.630;2023-01-28T19:02:31;11.73;;;9.23;;
17937;SDS011;16051;53.024;8.630;2023-01-28T19:10:54;13.50;;;8.87;;
17937;SDS011;16051;53.024;8.630;2023-01-28T19:14:56;13.80;;;9.13;;
17937;SDS011;16051;53.024;8.630;2023-01-28T19:18:59;13.27;;;9.03;;
17937;SDS011;16051;53.024;8.630;2023-01-28T19:23:01;15.47;;;10.30;;
17937;SDS011;16051;53.024;8.630;2023-01-28T19:27:11;15.40;;;9.60;;
17937;SDS011;16051;53.024;8.630;2023-01-28T19:31:15;12.87;;;8.83;;
17937;SDS011;16051;53.024;8.630;2023-01-28T19:35:18;14.00;;;9.60;;
17937;SDS011;16051;53.024;8.630;2023-01-28T19:39:28;12.90;;;8.83;;
17937;SDS011;16051;53.024;8.630;2023-01-28T19:43:32;13.67;;;9.70;;
17937;SDS011;16051;53.024;8.630;2023-01-28T19:47:36;13.23;;;9.10;;
17937;SDS011;16051;53.024;8.630;2023-01-28T19:51:38;16.53;;;10.50;;
17937;SDS011;16051;53.024;8.630;2023-01-28T19:55:54;14.67;;;10.10;;
17937;SDS011;16051;53.024;8.630;2023-01-28T19:59:58;15.97;;;9.70;;
17937;SDS011;16051;53.024;8.630;2023-01-28T20:04:00;13.53;;;9.13;;
17937;SDS011;16051;53.024;8.630;2023-01-28T20:08:03;11.97;;;7.97;;
17937;SDS011;16051;53.024;8.630;2023-01-28T20:12:06;15.23;;;9.90;;
17937;SDS011;16051;53.024;8.630;2023-01-28T20:16:14;14.60;;;9.90;;
17937;SDS011;16051;53.024;8.630;2023-01-28T20:20:20;14.43;;;9.57;;
17937;SDS011;16051;53.024;8.630;2023-01-28T20:24:22;16.17;;;10.20;;
17937;SDS011;16051;53.024;8.630;2023-01-28T20:28:41;14.10;;;9.67;;
17937;SDS011;16051;53.024;8.630;2023-01-28T20:32:45;16.53;;;10.53;;
17937;SDS011;16051;53.024;8.630;2023-01-28T20:36:47;14.83;;;9.60;;
17937;SDS011;16051;53.024;8.630;2023-01-28T20:40:50;15.83;;;9.70;;
17937;SDS011;16051;53.024;8.630;2023-01-28T20:44:52;15.03;;;9.90;;
17937;SDS011;16051;53.024;8.630;2023-01-28T20:48:58;13.47;;;9.10;;
17937;SDS011;16051;53.024;8.630;2023-01-28T20:53:05;13.80;;;9.60;;
17937;SDS011;16051;53.024;8.630;2023-01-28T20:57:07;15.20;;;10.20;;
17937;SDS011;16051;53.024;8.630;2023-01-28T21:01:14;13.70;;;9.50;;
17937;SDS011;16051;53.024;8.630;2023-01-28T21:05:18;17.73;;;10.57;;
17937;SDS011;16051;53.024;8.630;2023-01-28T21:09:20;20.73;;;11.20;;
17937;SDS011;16051;53.024;8.630;2023-01-28T21:13:24;19.07;;;11.90;;
17937;SDS011;16051;53.024;8.630;2023-01-28T21:17:26;15.50;;;9.80;;
17937;SDS011;16051;53.024;8.630;2023-01-28T21:21:32;15.87;;;9.80;;
17937;SDS011;16051;53.024;8.630;2023-01-28T21:25:34;13.60;;;9.10;;
17937;SDS011;16051;53.024;8.630;2023-01-28T21:29:36;13.07;;;8.90;;
17937;SDS011;16051;53.024;8.630;2023-01-28T21:33:38;13.93;;;9.77;;
17937;SDS011;16051;53.024;8.630;2023-01-28T21:37:44;12.97;;;8.90;;
17937;SDS011;16051;53.024;8.630;2023-01-28T21:41:47;12.20;;;9.03;;
17937;SDS011;16051;53.024;8.630;2023-01-28T21:45:53;14.03;;;9.10;;
17937;SDS011;16051;53.024;8.630;2023-01-28T21:49:55;14.97;;;9.63;;
17937;SDS011;16051;53.024;8.630;2023-01-28T21:54:01;11.50;;;8.20;;
17937;SDS011;16051;53.024;8.630;2023-01-28T21:58:03;13.13;;;8.40;;
17937;SDS011;16051;53.024;8.630;2023-01-28T22:02:19;14.13;;;8.57;;
17937;SDS011;16051;53.024;8.630;2023-01-28T22:06:21;11.63;;;8.20;;
17937;SDS011;16051;53.024;8.630;2023-01-28T22:10:25;15.50;;;10.17;;
17937;SDS011;16051;53.024;8.630;2023-01-28T22:14:40;15.80;;;9.13;;
17937;SDS011;16051;53.024;8.630;2023-01-28T22:18:42;13.33;;;9.33;;
17937;SDS011;16051;53.024;8.630;2023-01-28T22:22:45;13.00;;;8.87;;
17937;SDS011;16051;53.024;8.630;2023-01-28T22:26:49;15.07;;;9.60;;
17937;SDS011;16051;53.024;8.630;2023-01-28T22:30:53;15.43;;;10.00;;
17937;SDS011;16051;53.024;8.630;2023-01-28T22:35:05;13.67;;;8.60;;
17937;SDS011;16051;53.024;8.630;2023-01-28T22:39:14;13.93;;;9.33;;
17937;SDS011;16051;53.024;8.630;2023-01-28T22:43:18;13.00;;;8.97;;
17937;SDS011;16051;53.024;8.630;2023-01-28T22:47:20;13.67;;;9.10;;
17937;SDS011;16051;53.024;8.630;2023-01-28T22:51:23;14.50;;;9.03;;
17937;SDS011;16051;53.024;8.630;2023-01-28T22:55:28;12.37;;;8.83;;
17937;SDS011;16051;53.024;8.630;2023-01-28T22:59:34;13.87;;;9.27;;
17937;SDS011;16051;53.024;8.630;2023-01-28T23:03:36;13.83;;;9.33;;
17937;SDS011;16051;53.024;8.630;2023-01-28T23:07:38;14.67;;;9.67;;
17937;SDS011;16051;53.024;8.630;2023-01-28T23:11:40;14.10;;;9.57;;
17937;SDS011;16051;53.024;8.630;2023-01-28T23:15:44;15.60;;;9.30;;
17937;SDS011;16051;53.024;8.630;2023-01-28T23:20:05;16.77;;;9.50;;
17937;SDS011;16051;53.024;8.630;2023-01-28T23:24:32;13.50;;;9.23;;
17937;SDS011;16051;53.024;8.630;2023-01-28T23:28:34;13.70;;;9.63;;
17937;SDS011;16051;53.024;8.630;2023-01-28T23:32:38;14.70;;;9.43;;
17937;SDS011;16051;53.024;8.630;2023-01-28T23:36:45;17.37;;;9.80;;
17937;SDS011;16051;53.024;8.630;2023-01-28T23:40:47;15.10;;;9.07;;
17937;SDS011;16051;53.024;8.630;2023-01-28T23:44:49;13.83;;;9.30;;
17937;SDS011;16051;53.024;8.630;2023-01-28T23:48:53;13.07;;;8.70;;
17937;SDS011;16051;53.024;8.630;2023-01-28T23:52:57;15.63;;;9.47;;
17937;SDS011;16051;53.024;8.630;2023-01-28T23:57:07;15.20;;;10.00;;
